sensor_id;sensor_type;location;lat;lon;timestamp;P1;durP1;ratioP1;P2;durP2;ratioP2
78308;SDS011;75657;42.022;21.356;2024-02-23T00:00:47;39.95;;;23.45;;
78308;SDS011;75657;42.022;21.356;2024-02-23T00:03:12;38.10;;;23.08;;
78308;SDS011;75657;42.022;21.356;2024-02-23T00:05:38;36.88;;;22.73;;
78308;SDS011;75657;42.022;21.356;2024-02-23T00:08:03;43.25;;;22.65;;
78308;SDS011;75657;42.022;21.356;2024-02-23T00:10:29;44.35;;;22.83;;
78308;SDS011;75657;42.022;21.356;2024-02-23T00:12:55;37.53;;;21.63;;
78308;SDS011;75657;42.022;21.356;2024-02-23T00:15:20;39.78;;;23.70;;
78308;SDS011;75657;42.022;21.356;2024-02-23T00:17:45;50.08;;;30.25;;
78308;SDS011;75657;42.022;21.356;2024-02-23T00:20:11;48.80;;;29.98;;
78308;SDS011;75657;42.022;21.356;2024-02-23T00:22:37;50.63;;;30.58;;
78308;SDS011;75657;42.022;21.356;2024-02-23T00:25:03;50.38;;;31.58;;
78308;SDS011;75657;42.022;21.356;2024-02-23T00:27:28;50.55;;;32.08;;
78308;SDS011;75657;42.022;21.356;2024-02-23T00:29:54;56.92;;;35.40;;
78308;SDS011;75657;42.022;21.356;2024-02-23T00:32:19;69.25;;;39.67;;
78308;SDS011;75657;42.022;21.356;2024-02-23T00:34:45;73.28;;;40.60;;
78308;SDS011;75657;42.022;21.356;2024-02-23T00:37:11;76.85;;;43.90;;
78308;SDS011;75657;42.022;21.356;2024-02-23T00:39:36;62.42;;;37.15;;
78308;SDS011;75657;42.022;21.356;2024-02-23T00:42:02;60.67;;;35.75;;
78308;SDS011;75657;42.022;21.356;2024-02-23T00:44:28;70.10;;;41.33;;
78308;SDS011;75657;42.022;21.356;2024-02-23T00:46:54;66.75;;;37.55;;
78308;SDS011;75657;42.022;21.356;2024-02-23T00:49:19;61.90;;;38.20;;
78308;SDS011;75657;42.022;21.356;2024-02-23T00:51:45;63.38;;;36.45;;
78308;SDS011;75657;42.022;21.356;2024-02-23T00:54:10;66.57;;;39.10;;
78308;SDS011;75657;42.022;21.356;2024-02-23T00:56:36;69.72;;;43.50;;
78308;SDS011;75657;42.022;21.356;2024-02-23T00:59:01;74.95;;;41.78;;
78308;SDS011;75657;42.022;21.356;2024-02-23T01:01:27;78.70;;;47.25;;
78308;SDS011;75657;42.022;21.356;2024-02-23T01:03:53;71.93;;;42.53;;
78308;SDS011;75657;42.022;21.356;2024-02-23T01:06:19;76.80;;;42.67;;
78308;SDS011;75657;42.022;21.356;2024-02-23T01:08:44;73.88;;;41.83;;
78308;SDS011;75657;42.022;21.356;2024-02-23T01:11:10;72.60;;;39.15;;
78308;SDS011;75657;42.022;21.356;2024-02-23T01:13:35;71.93;;;45.50;;
78308;SDS011;75657;42.022;21.356;2024-02-23T01:16:01;83.30;;;41.60;;
78308;SDS011;75657;42.022;21.356;2024-02-23T01:18:27;68.85;;;38.35;;
78308;SDS011;75657;42.022;21.356;2024-02-23T01:20:52;65.72;;;40.60;;
78308;SDS011;75657;42.022;21.356;2024-02-23T01:23:18;63.47;;;35.22;;
78308;SDS011;75657;42.022;21.356;2024-02-23T01:25:43;41.45;;;25.25;;
78308;SDS011;75657;42.022;21.356;2024-02-23T01:28:09;50.85;;;28.70;;
78308;SDS011;75657;42.022;21.356;2024-02-23T01:30:34;49.92;;;26.08;;
78308;SDS011;75657;42.022;21.356;2024-02-23T01:33:00;45.67;;;25.08;;
78308;SDS011;75657;42.022;21.356;2024-02-23T01:35:25;49.13;;;27.00;;
78308;SDS011;75657;42.022;21.356;2024-02-23T01:37:51;44.55;;;26.30;;
78308;SDS011;75657;42.022;21.356;2024-02-23T01:40:16;41.42;;;24.52;;
78308;SDS011;75657;42.022;21.356;2024-02-23T01:42:42;43.78;;;27.00;;
78308;SDS011;75657;42.022;21.356;2024-02-23T01:45:07;51.00;;;26.27;;
78308;SDS011;75657;42.022;21.356;2024-02-23T01:47:33;49.17;;;27.42;;
78308;SDS011;75657;42.022;21.356;2024-02-23T01:49:58;48.63;;;27.17;;
78308;SDS011;75657;42.022;21.356;2024-02-23T01:52:24;50.75;;;29.30;;
78308;SDS011;75657;42.022;21.356;2024-02-23T01:54:51;47.38;;;27.63;;
78308;SDS011;75657;42.022;21.356;2024-02-23T01:57:17;56.15;;;29.88;;
78308;SDS011;75657;42.022;21.356;2024-02-23T01:59:43;58.60;;;30.38;;
78308;SDS011;75657;42.022;21.356;2024-02-23T02:02:08;48.72;;;30.50;;
78308;SDS011;75657;42.022;21.356;2024-02-23T02:04:34;53.58;;;31.40;;
78308;SDS011;75657;42.022;21.356;2024-02-23T02:07:00;54.38;;;30.55;;
78308;SDS011;75657;42.022;21.356;2024-02-23T02:09:26;54.08;;;32.20;;
78308;SDS011;75657;42.022;21.356;2024-02-23T02:11:52;56.35;;;34.17;;
78308;SDS011;75657;42.022;21.356;2024-02-23T02:14:18;56.10;;;32.25;;
78308;SDS011;75657;42.022;21.356;2024-02-23T02:16:44;50.10;;;28.33;;
78308;SDS011;75657;42.022;21.356;2024-02-23T02:19:10;48.30;;;27.75;;
78308;SDS011;75657;42.022;21.356;2024-02-23T02:21:36;45.10;;;25.40;;
78308;SDS011;75657;42.022;21.356;2024-02-23T02:24:02;40.15;;;23.27;;
78308;SDS011;75657;42.022;21.356;2024-02-23T02:26:28;47.25;;;26.33;;
78308;SDS011;75657;42.022;21.356;2024-02-23T02:28:54;53.25;;;26.83;;
78308;SDS011;75657;42.022;21.356;2024-02-23T02:31:20;46.72;;;26.10;;
78308;SDS011;75657;42.022;21.356;2024-02-23T02:33:45;49.90;;;28.27;;
78308;SDS011;75657;42.022;21.356;2024-02-23T02:36:11;52.45;;;30.55;;
78308;SDS011;75657;42.022;21.356;2024-02-23T02:38:37;53.17;;;29.67;;
78308;SDS011;75657;42.022;21.356;2024-02-23T02:41:02;53.60;;;31.23;;
78308;SDS011;75657;42.022;21.356;2024-02-23T02:43:28;54.05;;;30.48;;
78308;SDS011;75657;42.022;21.356;2024-02-23T02:45:54;52.85;;;30.83;;
78308;SDS011;75657;42.022;21.356;2024-02-23T02:48:19;48.60;;;27.70;;
78308;SDS011;75657;42.022;21.356;2024-02-23T02:50:45;40.00;;;23.95;;
78308;SDS011;75657;42.022;21.356;2024-02-23T02:53:10;38.38;;;22.27;;
78308;SDS011;75657;42.022;21.356;2024-02-23T02:55:36;33.50;;;20.23;;
78308;SDS011;75657;42.022;21.356;2024-02-23T02:58:06;36.67;;;22.90;;
78308;SDS011;75657;42.022;21.356;2024-02-23T03:00:32;38.50;;;22.80;;
78308;SDS011;75657;42.022;21.356;2024-02-23T03:02:58;38.42;;;23.83;;
78308;SDS011;75657;42.022;21.356;2024-02-23T03:05:23;40.20;;;24.60;;
78308;SDS011;75657;42.022;21.356;2024-02-23T03:07:49;46.38;;;25.70;;
78308;SDS011;75657;42.022;21.356;2024-02-23T03:10:14;44.05;;;26.95;;
78308;SDS011;75657;42.022;21.356;2024-02-23T03:12:40;48.67;;;25.52;;
78308;SDS011;75657;42.022;21.356;2024-02-23T03:15:06;43.80;;;25.67;;
78308;SDS011;75657;42.022;21.356;2024-02-23T03:17:32;48.35;;;26.95;;
78308;SDS011;75657;42.022;21.356;2024-02-23T03:19:58;48.90;;;28.65;;
78308;SDS011;75657;42.022;21.356;2024-02-23T03:22:24;44.42;;;25.60;;
78308;SDS011;75657;42.022;21.356;2024-02-23T03:24:49;41.83;;;24.65;;
78308;SDS011;75657;42.022;21.356;2024-02-23T03:27:15;39.92;;;23.63;;
78308;SDS011;75657;42.022;21.356;2024-02-23T03:29:40;45.35;;;27.05;;
78308;SDS011;75657;42.022;21.356;2024-02-23T03:32:06;48.05;;;25.83;;
78308;SDS011;75657;42.022;21.356;2024-02-23T03:34:32;39.88;;;23.88;;
78308;SDS011;75657;42.022;21.356;2024-02-23T03:36:57;41.75;;;24.17;;
78308;SDS011;75657;42.022;21.356;2024-02-23T03:39:27;39.33;;;22.77;;
78308;SDS011;75657;42.022;21.356;2024-02-23T03:41:53;42.83;;;25.40;;
78308;SDS011;75657;42.022;21.356;2024-02-23T03:44:19;42.60;;;26.17;;
78308;SDS011;75657;42.022;21.356;2024-02-23T03:46:44;40.00;;;22.52;;
78308;SDS011;75657;42.022;21.356;2024-02-23T03:49:10;40.65;;;23.55;;
78308;SDS011;75657;42.022;21.356;2024-02-23T03:51:36;50.40;;;28.20;;
78308;SDS011;75657;42.022;21.356;2024-02-23T03:54:04;44.45;;;25.45;;
78308;SDS011;75657;42.022;21.356;2024-02-23T03:56:30;39.55;;;23.15;;
78308;SDS011;75657;42.022;21.356;2024-02-23T03:59:03;44.25;;;25.85;;
78308;SDS011;75657;42.022;21.356;2024-02-23T04:01:29;41.05;;;24.42;;
78308;SDS011;75657;42.022;21.356;2024-02-23T04:03:55;46.10;;;24.52;;
78308;SDS011;75657;42.022;21.356;2024-02-23T04:06:20;44.10;;;25.73;;
78308;SDS011;75657;42.022;21.356;2024-02-23T04:08:45;47.28;;;26.73;;
78308;SDS011;75657;42.022;21.356;2024-02-23T04:11:12;44.35;;;25.15;;
78308;SDS011;75657;42.022;21.356;2024-02-23T04:13:38;39.70;;;23.60;;
78308;SDS011;75657;42.022;21.356;2024-02-23T04:16:03;38.90;;;24.45;;
78308;SDS011;75657;42.022;21.356;2024-02-23T04:18:29;33.33;;;20.65;;
78308;SDS011;75657;42.022;21.356;2024-02-23T04:20:55;38.10;;;21.98;;
78308;SDS011;75657;42.022;21.356;2024-02-23T04:23:20;35.30;;;20.40;;
78308;SDS011;75657;42.022;21.356;2024-02-23T04:25:46;31.95;;;18.77;;
78308;SDS011;75657;42.022;21.356;2024-02-23T04:28:11;34.47;;;21.48;;
78308;SDS011;75657;42.022;21.356;2024-02-23T04:30:36;28.35;;;18.70;;
78308;SDS011;75657;42.022;21.356;2024-02-23T04:33:02;34.08;;;18.98;;
78308;SDS011;75657;42.022;21.356;2024-02-23T04:35:27;34.03;;;19.15;;
78308;SDS011;75657;42.022;21.356;2024-02-23T04:37:53;32.40;;;20.15;;
78308;SDS011;75657;42.022;21.356;2024-02-23T04:40:18;40.28;;;23.33;;
78308;SDS011;75657;42.022;21.356;2024-02-23T04:42:44;39.60;;;23.17;;
78308;SDS011;75657;42.022;21.356;2024-02-23T04:45:10;41.92;;;24.83;;
78308;SDS011;75657;42.022;21.356;2024-02-23T04:47:36;37.22;;;23.15;;
78308;SDS011;75657;42.022;21.356;2024-02-23T04:50:01;41.53;;;23.88;;
78308;SDS011;75657;42.022;21.356;2024-02-23T04:52:28;43.13;;;22.60;;
78308;SDS011;75657;42.022;21.356;2024-02-23T04:54:54;37.47;;;21.23;;
78308;SDS011;75657;42.022;21.356;2024-02-23T04:57:19;36.38;;;20.05;;
78308;SDS011;75657;42.022;21.356;2024-02-23T04:59:45;33.15;;;20.17;;
78308;SDS011;75657;42.022;21.356;2024-02-23T05:02:10;32.58;;;20.08;;
78308;SDS011;75657;42.022;21.356;2024-02-23T05:04:36;36.70;;;21.45;;
78308;SDS011;75657;42.022;21.356;2024-02-23T05:07:02;37.53;;;20.83;;
78308;SDS011;75657;42.022;21.356;2024-02-23T05:09:27;37.28;;;20.77;;
78308;SDS011;75657;42.022;21.356;2024-02-23T05:11:53;39.28;;;21.20;;
78308;SDS011;75657;42.022;21.356;2024-02-23T05:14:18;38.28;;;20.98;;
78308;SDS011;75657;42.022;21.356;2024-02-23T05:16:43;36.17;;;20.48;;
78308;SDS011;75657;42.022;21.356;2024-02-23T05:19:09;36.83;;;22.00;;
78308;SDS011;75657;42.022;21.356;2024-02-23T05:21:34;37.78;;;20.75;;
78308;SDS011;75657;42.022;21.356;2024-02-23T05:24:00;38.63;;;21.92;;
78308;SDS011;75657;42.022;21.356;2024-02-23T05:26:25;43.75;;;24.38;;
78308;SDS011;75657;42.022;21.356;2024-02-23T05:28:51;49.53;;;25.65;;
78308;SDS011;75657;42.022;21.356;2024-02-23T05:31:17;52.50;;;31.73;;
78308;SDS011;75657;42.022;21.356;2024-02-23T05:33:43;53.38;;;36.50;;
78308;SDS011;75657;42.022;21.356;2024-02-23T05:36:08;58.97;;;34.80;;
78308;SDS011;75657;42.022;21.356;2024-02-23T05:38:33;59.28;;;32.40;;
78308;SDS011;75657;42.022;21.356;2024-02-23T05:40:59;52.58;;;29.02;;
78308;SDS011;75657;42.022;21.356;2024-02-23T05:43:24;53.13;;;28.80;;
78308;SDS011;75657;42.022;21.356;2024-02-23T05:45:50;51.80;;;32.97;;
78308;SDS011;75657;42.022;21.356;2024-02-23T05:48:15;47.47;;;30.70;;
78308;SDS011;75657;42.022;21.356;2024-02-23T05:50:41;54.88;;;32.83;;
78308;SDS011;75657;42.022;21.356;2024-02-23T05:53:06;53.40;;;31.92;;
78308;SDS011;75657;42.022;21.356;2024-02-23T05:55:32;54.22;;;31.42;;
78308;SDS011;75657;42.022;21.356;2024-02-23T05:57:58;55.78;;;31.88;;
78308;SDS011;75657;42.022;21.356;2024-02-23T06:00:24;50.83;;;30.02;;
78308;SDS011;75657;42.022;21.356;2024-02-23T06:02:50;52.28;;;31.10;;
78308;SDS011;75657;42.022;21.356;2024-02-23T06:05:15;53.28;;;32.05;;
78308;SDS011;75657;42.022;21.356;2024-02-23T06:07:41;52.05;;;32.97;;
78308;SDS011;75657;42.022;21.356;2024-02-23T06:10:06;69.75;;;39.30;;
78308;SDS011;75657;42.022;21.356;2024-02-23T06:12:32;62.28;;;35.97;;
78308;SDS011;75657;42.022;21.356;2024-02-23T06:14:58;61.35;;;35.38;;
78308;SDS011;75657;42.022;21.356;2024-02-23T06:17:26;58.42;;;33.90;;
78308;SDS011;75657;42.022;21.356;2024-02-23T06:19:52;54.38;;;31.70;;
78308;SDS011;75657;42.022;21.356;2024-02-23T06:22:18;55.03;;;33.05;;
78308;SDS011;75657;42.022;21.356;2024-02-23T06:24:46;46.42;;;28.85;;
78308;SDS011;75657;42.022;21.356;2024-02-23T06:27:12;41.72;;;25.40;;
78308;SDS011;75657;42.022;21.356;2024-02-23T06:29:38;48.30;;;28.30;;
78308;SDS011;75657;42.022;21.356;2024-02-23T06:32:03;47.00;;;27.83;;
78308;SDS011;75657;42.022;21.356;2024-02-23T06:34:29;44.85;;;26.27;;
78308;SDS011;75657;42.022;21.356;2024-02-23T06:36:55;47.47;;;27.23;;
78308;SDS011;75657;42.022;21.356;2024-02-23T06:39:20;38.83;;;24.30;;
78308;SDS011;75657;42.022;21.356;2024-02-23T06:41:46;48.58;;;26.85;;
78308;SDS011;75657;42.022;21.356;2024-02-23T06:44:11;450.85;;;177.43;;
78308;SDS011;75657;42.022;21.356;2024-02-23T06:46:37;431.60;;;167.77;;
78308;SDS011;75657;42.022;21.356;2024-02-23T06:49:03;289.05;;;118.07;;
78308;SDS011;75657;42.022;21.356;2024-02-23T06:51:29;211.63;;;97.60;;
78308;SDS011;75657;42.022;21.356;2024-02-23T06:53:56;114.68;;;55.58;;
78308;SDS011;75657;42.022;21.356;2024-02-23T06:56:22;113.80;;;57.45;;
78308;SDS011;75657;42.022;21.356;2024-02-23T06:58:56;126.47;;;57.70;;
78308;SDS011;75657;42.022;21.356;2024-02-23T07:01:21;77.28;;;39.22;;
78308;SDS011;75657;42.022;21.356;2024-02-23T07:03:47;72.60;;;36.55;;
78308;SDS011;75657;42.022;21.356;2024-02-23T07:06:15;77.03;;;38.30;;
78308;SDS011;75657;42.022;21.356;2024-02-23T07:08:43;70.35;;;36.97;;
78308;SDS011;75657;42.022;21.356;2024-02-23T07:11:09;59.03;;;32.75;;
78308;SDS011;75657;42.022;21.356;2024-02-23T07:13:35;55.03;;;29.35;;
78308;SDS011;75657;42.022;21.356;2024-02-23T07:16:01;47.45;;;27.70;;
78308;SDS011;75657;42.022;21.356;2024-02-23T07:18:27;50.17;;;29.33;;
78308;SDS011;75657;42.022;21.356;2024-02-23T07:20:53;50.22;;;29.20;;
78308;SDS011;75657;42.022;21.356;2024-02-23T07:23:18;49.55;;;28.85;;
78308;SDS011;75657;42.022;21.356;2024-02-23T07:25:44;50.78;;;30.98;;
78308;SDS011;75657;42.022;21.356;2024-02-23T07:28:10;45.10;;;24.80;;
78308;SDS011;75657;42.022;21.356;2024-02-23T07:30:35;87.28;;;53.53;;
78308;SDS011;75657;42.022;21.356;2024-02-23T07:33:00;65.50;;;39.17;;
78308;SDS011;75657;42.022;21.356;2024-02-23T07:35:26;44.15;;;27.08;;
78308;SDS011;75657;42.022;21.356;2024-02-23T07:37:53;74.30;;;38.42;;
78308;SDS011;75657;42.022;21.356;2024-02-23T07:40:18;39.17;;;23.55;;
78308;SDS011;75657;42.022;21.356;2024-02-23T07:42:43;37.47;;;22.33;;
78308;SDS011;75657;42.022;21.356;2024-02-23T07:45:09;40.13;;;23.05;;
78308;SDS011;75657;42.022;21.356;2024-02-23T07:47:35;39.67;;;22.77;;
78308;SDS011;75657;42.022;21.356;2024-02-23T07:50:01;34.53;;;22.02;;
78308;SDS011;75657;42.022;21.356;2024-02-23T07:52:26;43.10;;;23.30;;
78308;SDS011;75657;42.022;21.356;2024-02-23T07:54:54;39.22;;;23.65;;
78308;SDS011;75657;42.022;21.356;2024-02-23T07:57:20;41.45;;;24.83;;
78308;SDS011;75657;42.022;21.356;2024-02-23T07:59:45;34.80;;;20.52;;
78308;SDS011;75657;42.022;21.356;2024-02-23T08:02:11;30.45;;;18.05;;
78308;SDS011;75657;42.022;21.356;2024-02-23T08:04:37;33.15;;;18.83;;
78308;SDS011;75657;42.022;21.356;2024-02-23T08:07:03;28.23;;;17.55;;
78308;SDS011;75657;42.022;21.356;2024-02-23T08:09:29;28.00;;;16.95;;
78308;SDS011;75657;42.022;21.356;2024-02-23T08:11:54;30.10;;;17.73;;
78308;SDS011;75657;42.022;21.356;2024-02-23T08:14:20;32.55;;;19.58;;
78308;SDS011;75657;42.022;21.356;2024-02-23T08:19:37;31.55;;;18.58;;
78308;SDS011;75657;42.022;21.356;2024-02-23T08:22:03;35.55;;;21.30;;
78308;SDS011;75657;42.022;21.356;2024-02-23T08:24:28;31.40;;;19.20;;
78308;SDS011;75657;42.022;21.356;2024-02-23T08:26:54;29.58;;;17.65;;
78308;SDS011;75657;42.022;21.356;2024-02-23T08:29:22;32.97;;;19.88;;
78308;SDS011;75657;42.022;21.356;2024-02-23T08:31:47;33.47;;;19.58;;
78308;SDS011;75657;42.022;21.356;2024-02-23T08:34:13;32.13;;;19.10;;
78308;SDS011;75657;42.022;21.356;2024-02-23T08:36:39;32.05;;;19.05;;
78308;SDS011;75657;42.022;21.356;2024-02-23T08:39:07;29.65;;;18.92;;
78308;SDS011;75657;42.022;21.356;2024-02-23T08:41:34;29.80;;;18.10;;
78308;SDS011;75657;42.022;21.356;2024-02-23T08:43:59;30.73;;;18.75;;
78308;SDS011;75657;42.022;21.356;2024-02-23T08:46:25;26.83;;;16.33;;
78308;SDS011;75657;42.022;21.356;2024-02-23T08:48:50;29.38;;;18.00;;
78308;SDS011;75657;42.022;21.356;2024-02-23T08:51:21;29.23;;;18.52;;
78308;SDS011;75657;42.022;21.356;2024-02-23T08:53:47;31.25;;;19.48;;
78308;SDS011;75657;42.022;21.356;2024-02-23T08:56:12;32.03;;;17.33;;
78308;SDS011;75657;42.022;21.356;2024-02-23T08:58:38;28.73;;;18.50;;
78308;SDS011;75657;42.022;21.356;2024-02-23T09:01:03;30.73;;;18.77;;
78308;SDS011;75657;42.022;21.356;2024-02-23T09:03:29;25.45;;;17.05;;
78308;SDS011;75657;42.022;21.356;2024-02-23T09:05:56;31.05;;;18.30;;
78308;SDS011;75657;42.022;21.356;2024-02-23T09:08:22;31.27;;;18.23;;
78308;SDS011;75657;42.022;21.356;2024-02-23T09:10:47;29.92;;;17.42;;
78308;SDS011;75657;42.022;21.356;2024-02-23T09:13:13;26.77;;;16.88;;
78308;SDS011;75657;42.022;21.356;2024-02-23T09:15:40;27.38;;;17.42;;
78308;SDS011;75657;42.022;21.356;2024-02-23T09:18:07;25.13;;;15.77;;
78308;SDS011;75657;42.022;21.356;2024-02-23T09:20:32;30.02;;;18.30;;
78308;SDS011;75657;42.022;21.356;2024-02-23T09:22:58;23.58;;;15.05;;
78308;SDS011;75657;42.022;21.356;2024-02-23T09:25:23;27.60;;;16.13;;
78308;SDS011;75657;42.022;21.356;2024-02-23T09:27:49;31.38;;;19.27;;
78308;SDS011;75657;42.022;21.356;2024-02-23T09:30:14;28.23;;;16.83;;
78308;SDS011;75657;42.022;21.356;2024-02-23T09:32:40;29.13;;;18.05;;
78308;SDS011;75657;42.022;21.356;2024-02-23T09:35:06;29.90;;;17.85;;
78308;SDS011;75657;42.022;21.356;2024-02-23T09:37:32;24.75;;;16.85;;
78308;SDS011;75657;42.022;21.356;2024-02-23T09:39:58;26.95;;;17.65;;
78308;SDS011;75657;42.022;21.356;2024-02-23T09:42:23;28.95;;;18.35;;
78308;SDS011;75657;42.022;21.356;2024-02-23T09:44:58;26.30;;;15.77;;
78308;SDS011;75657;42.022;21.356;2024-02-23T09:47:28;25.58;;;16.20;;
78308;SDS011;75657;42.022;21.356;2024-02-23T09:49:54;27.38;;;15.48;;
78308;SDS011;75657;42.022;21.356;2024-02-23T09:52:23;28.35;;;17.50;;
78308;SDS011;75657;42.022;21.356;2024-02-23T09:54:49;26.95;;;16.58;;
78308;SDS011;75657;42.022;21.356;2024-02-23T09:57:15;23.73;;;15.75;;
78308;SDS011;75657;42.022;21.356;2024-02-23T09:59:42;26.40;;;16.27;;
78308;SDS011;75657;42.022;21.356;2024-02-23T10:02:15;24.45;;;16.80;;
78308;SDS011;75657;42.022;21.356;2024-02-23T10:04:42;29.48;;;17.75;;
78308;SDS011;75657;42.022;21.356;2024-02-23T10:07:09;24.88;;;14.88;;
78308;SDS011;75657;42.022;21.356;2024-02-23T10:09:34;23.77;;;15.80;;
78308;SDS011;75657;42.022;21.356;2024-02-23T10:12:01;24.67;;;15.82;;
78308;SDS011;75657;42.022;21.356;2024-02-23T10:14:27;22.60;;;15.43;;
78308;SDS011;75657;42.022;21.356;2024-02-23T10:16:52;23.52;;;14.27;;
78308;SDS011;75657;42.022;21.356;2024-02-23T10:19:20;23.05;;;15.07;;
78308;SDS011;75657;42.022;21.356;2024-02-23T10:21:46;21.15;;;13.30;;
78308;SDS011;75657;42.022;21.356;2024-02-23T10:24:12;22.33;;;14.25;;
78308;SDS011;75657;42.022;21.356;2024-02-23T10:26:41;20.55;;;13.70;;
78308;SDS011;75657;42.022;21.356;2024-02-23T10:29:06;21.92;;;14.27;;
78308;SDS011;75657;42.022;21.356;2024-02-23T10:31:34;20.02;;;13.60;;
78308;SDS011;75657;42.022;21.356;2024-02-23T10:34:08;21.65;;;12.73;;
78308;SDS011;75657;42.022;21.356;2024-02-23T10:36:38;21.45;;;13.35;;
78308;SDS011;75657;42.022;21.356;2024-02-23T10:39:06;19.42;;;13.20;;
78308;SDS011;75657;42.022;21.356;2024-02-23T10:41:34;20.73;;;13.35;;
78308;SDS011;75657;42.022;21.356;2024-02-23T10:44:02;23.77;;;14.40;;
78308;SDS011;75657;42.022;21.356;2024-02-23T10:46:29;21.08;;;13.25;;
78308;SDS011;75657;42.022;21.356;2024-02-23T10:48:56;19.25;;;13.02;;
78308;SDS011;75657;42.022;21.356;2024-02-23T10:51:24;45.33;;;26.30;;
78308;SDS011;75657;42.022;21.356;2024-02-23T10:53:50;37.95;;;22.48;;
78308;SDS011;75657;42.022;21.356;2024-02-23T10:56:17;21.17;;;12.98;;
78308;SDS011;75657;42.022;21.356;2024-02-23T10:58:43;17.92;;;12.43;;
78308;SDS011;75657;42.022;21.356;2024-02-23T11:01:08;15.85;;;11.30;;
78308;SDS011;75657;42.022;21.356;2024-02-23T11:03:35;18.73;;;11.50;;
78308;SDS011;75657;42.022;21.356;2024-02-23T11:06:05;20.10;;;11.55;;
78308;SDS011;75657;42.022;21.356;2024-02-23T11:08:34;17.75;;;9.98;;
78308;SDS011;75657;42.022;21.356;2024-02-23T11:11:09;14.80;;;9.77;;
78308;SDS011;75657;42.022;21.356;2024-02-23T11:13:39;13.25;;;9.10;;
78308;SDS011;75657;42.022;21.356;2024-02-23T11:16:06;18.02;;;11.02;;
78308;SDS011;75657;42.022;21.356;2024-02-23T11:18:35;15.65;;;9.93;;
78308;SDS011;75657;42.022;21.356;2024-02-23T11:21:04;12.85;;;9.43;;
78308;SDS011;75657;42.022;21.356;2024-02-23T11:23:48;14.27;;;9.10;;
78308;SDS011;75657;42.022;21.356;2024-02-23T11:26:17;17.77;;;9.98;;
78308;SDS011;75657;42.022;21.356;2024-02-23T11:28:43;16.95;;;10.93;;
78308;SDS011;75657;42.022;21.356;2024-02-23T11:31:12;14.85;;;8.75;;
78308;SDS011;75657;42.022;21.356;2024-02-23T11:33:50;12.63;;;8.00;;
78308;SDS011;75657;42.022;21.356;2024-02-23T11:38:57;11.57;;;7.43;;
78308;SDS011;75657;42.022;21.356;2024-02-23T11:41:24;8.57;;;5.63;;
78308;SDS011;75657;42.022;21.356;2024-02-23T11:43:51;6.30;;;4.40;;
78308;SDS011;75657;42.022;21.356;2024-02-23T11:46:17;9.52;;;5.05;;
78308;SDS011;75657;42.022;21.356;2024-02-23T11:48:43;12.52;;;6.88;;
78308;SDS011;75657;42.022;21.356;2024-02-23T11:51:11;10.88;;;6.88;;
78308;SDS011;75657;42.022;21.356;2024-02-23T11:53:37;14.48;;;8.10;;
78308;SDS011;75657;42.022;21.356;2024-02-23T11:56:04;10.63;;;6.93;;
78308;SDS011;75657;42.022;21.356;2024-02-23T11:58:31;12.77;;;7.60;;
78308;SDS011;75657;42.022;21.356;2024-02-23T12:01:02;14.77;;;7.82;;
78308;SDS011;75657;42.022;21.356;2024-02-23T12:03:28;8.13;;;5.07;;
78308;SDS011;75657;42.022;21.356;2024-02-23T12:05:58;6.05;;;4.25;;
78308;SDS011;75657;42.022;21.356;2024-02-23T12:08:24;5.78;;;3.85;;
78308;SDS011;75657;42.022;21.356;2024-02-23T12:10:56;8.07;;;5.97;;
78308;SDS011;75657;42.022;21.356;2024-02-23T12:13:22;9.65;;;4.60;;
78308;SDS011;75657;42.022;21.356;2024-02-23T12:15:48;6.95;;;4.30;;
78308;SDS011;75657;42.022;21.356;2024-02-23T12:18:18;10.32;;;5.35;;
78308;SDS011;75657;42.022;21.356;2024-02-23T12:20:47;5.82;;;3.50;;
78308;SDS011;75657;42.022;21.356;2024-02-23T12:23:13;5.68;;;3.78;;
78308;SDS011;75657;42.022;21.356;2024-02-23T12:25:38;5.63;;;3.20;;
78308;SDS011;75657;42.022;21.356;2024-02-23T12:28:04;6.90;;;3.20;;
78308;SDS011;75657;42.022;21.356;2024-02-23T12:30:30;6.18;;;3.42;;
78308;SDS011;75657;42.022;21.356;2024-02-23T12:35:48;6.07;;;3.20;;
78308;SDS011;75657;42.022;21.356;2024-02-23T12:38:13;5.22;;;2.65;;
78308;SDS011;75657;42.022;21.356;2024-02-23T12:40:39;4.65;;;2.85;;
78308;SDS011;75657;42.022;21.356;2024-02-23T12:43:04;5.07;;;3.80;;
78308;SDS011;75657;42.022;21.356;2024-02-23T12:45:30;4.18;;;2.67;;
78308;SDS011;75657;42.022;21.356;2024-02-23T12:47:55;5.85;;;2.95;;
78308;SDS011;75657;42.022;21.356;2024-02-23T12:50:21;4.13;;;2.47;;
78308;SDS011;75657;42.022;21.356;2024-02-23T12:52:46;4.13;;;2.70;;
78308;SDS011;75657;42.022;21.356;2024-02-23T12:55:12;4.53;;;2.92;;
78308;SDS011;75657;42.022;21.356;2024-02-23T12:57:37;7.28;;;4.60;;
78308;SDS011;75657;42.022;21.356;2024-02-23T13:00:03;7.70;;;3.95;;
78308;SDS011;75657;42.022;21.356;2024-02-23T13:02:30;14.30;;;9.57;;
78308;SDS011;75657;42.022;21.356;2024-02-23T13:04:56;8.40;;;5.20;;
78308;SDS011;75657;42.022;21.356;2024-02-23T13:07:21;5.28;;;2.70;;
78308;SDS011;75657;42.022;21.356;2024-02-23T13:09:47;6.40;;;3.15;;
78308;SDS011;75657;42.022;21.356;2024-02-23T13:12:12;5.47;;;3.63;;
78308;SDS011;75657;42.022;21.356;2024-02-23T13:14:37;6.10;;;3.40;;
78308;SDS011;75657;42.022;21.356;2024-02-23T13:17:03;5.07;;;3.25;;
78308;SDS011;75657;42.022;21.356;2024-02-23T13:19:28;5.07;;;3.17;;
78308;SDS011;75657;42.022;21.356;2024-02-23T13:21:54;4.95;;;3.50;;
78308;SDS011;75657;42.022;21.356;2024-02-23T13:24:20;36.13;;;17.70;;
78308;SDS011;75657;42.022;21.356;2024-02-23T13:26:45;11.75;;;9.85;;
78308;SDS011;75657;42.022;21.356;2024-02-23T13:29:11;5.25;;;3.88;;
78308;SDS011;75657;42.022;21.356;2024-02-23T13:31:36;4.43;;;3.15;;
78308;SDS011;75657;42.022;21.356;2024-02-23T13:34:03;6.07;;;3.70;;
78308;SDS011;75657;42.022;21.356;2024-02-23T13:36:28;6.78;;;3.13;;
78308;SDS011;75657;42.022;21.356;2024-02-23T13:38:54;5.07;;;3.35;;
78308;SDS011;75657;42.022;21.356;2024-02-23T13:41:19;4.25;;;2.63;;
78308;SDS011;75657;42.022;21.356;2024-02-23T13:43:45;4.97;;;4.03;;
78308;SDS011;75657;42.022;21.356;2024-02-23T13:46:11;4.53;;;2.90;;
78308;SDS011;75657;42.022;21.356;2024-02-23T13:48:37;5.45;;;3.53;;
78308;SDS011;75657;42.022;21.356;2024-02-23T13:51:02;10.27;;;3.50;;
78308;SDS011;75657;42.022;21.356;2024-02-23T13:53:28;6.10;;;3.35;;
78308;SDS011;75657;42.022;21.356;2024-02-23T13:55:55;4.80;;;3.03;;
78308;SDS011;75657;42.022;21.356;2024-02-23T13:58:21;4.93;;;3.10;;
78308;SDS011;75657;42.022;21.356;2024-02-23T14:00:46;6.20;;;3.65;;
78308;SDS011;75657;42.022;21.356;2024-02-23T14:03:16;4.80;;;3.10;;
78308;SDS011;75657;42.022;21.356;2024-02-23T14:05:43;4.88;;;4.35;;
78308;SDS011;75657;42.022;21.356;2024-02-23T14:08:10;6.07;;;3.67;;
78308;SDS011;75657;42.022;21.356;2024-02-23T14:10:36;6.47;;;3.00;;
78308;SDS011;75657;42.022;21.356;2024-02-23T14:13:01;6.45;;;2.97;;
78308;SDS011;75657;42.022;21.356;2024-02-23T14:15:27;4.82;;;3.08;;